createdAt,value
2023-03-04T00:09:05.894Z,3.213
2023-03-04T00:24:48.253Z,3.213
2023-03-04T00:40:30.680Z,3.213
2023-03-04T00:56:13.443Z,3.213
2023-03-04T01:11:55.860Z,3.213
2023-03-04T01:27:38.286Z,3.213
2023-03-04T01:43:20.547Z,3.213
2023-03-04T01:59:03.001Z,3.212
2023-03-04T02:14:45.313Z,3.212
2023-03-04T02:30:28.374Z,3.213
2023-03-04T02:46:10.969Z,3.213
2023-03-04T03:01:53.626Z,3.213
2023-03-04T03:17:35.807Z,3.213
2023-03-04T03:33:18.408Z,3.212
2023-03-04T03:49:00.870Z,3.213
2023-03-04T04:04:43.422Z,3.213
2023-03-04T04:20:25.676Z,3.213
2023-03-04T04:36:08.737Z,3.213
2023-03-04T04:51:51.001Z,3.213
2023-03-04T05:07:33.552Z,3.213
2023-03-04T05:23:16.048Z,3.213
2023-03-04T05:38:58.565Z,3.213
2023-03-04T05:54:41.342Z,3.213
2023-03-04T06:10:23.898Z,3.213
2023-03-04T06:26:06.178Z,3.213
2023-03-04T06:41:49.254Z,3.213
2023-03-04T06:57:31.901Z,3.22
2023-03-04T07:13:15.026Z,3.221
2023-03-04T07:28:57.845Z,3.221
2023-03-04T07:44:40.668Z,3.228
2023-03-04T08:00:23.051Z,3.231
2023-03-04T08:16:05.454Z,3.245
2023-03-04T08:31:48.212Z,3.239
2023-03-04T08:47:30.818Z,3.243
2023-03-04T09:03:12.924Z,3.253
2023-03-04T09:34:38.657Z,3.264
2023-03-04T10:06:03.388Z,3.275
2023-03-04T10:21:45.554Z,3.307
2023-03-04T10:37:28.655Z,3.285
2023-03-04T10:53:11.713Z,3.272
2023-03-04T11:08:54.104Z,3.264
2023-03-04T11:24:36.043Z,3.259
2023-03-04T11:40:19.103Z,3.253
2023-03-04T11:56:01.494Z,3.247
2023-03-04T12:11:44.008Z,3.299
2023-03-04T12:27:26.849Z,3.325
2023-03-04T12:43:09.762Z,3.297
2023-03-04T12:58:52.813Z,3.288
2023-03-04T13:14:35.497Z,3.278
2023-03-04T13:30:17.881Z,3.274
2023-03-04T13:46:00.340Z,3.265
2023-03-04T14:17:25.845Z,3.254
2023-03-04T14:33:08.173Z,3.249
2023-03-04T14:48:50.910Z,3.246
2023-03-04T15:20:16.303Z,3.246
2023-03-04T15:35:58.651Z,3.254
2023-03-04T15:51:40.977Z,3.259
2023-03-04T16:07:23.913Z,3.271
2023-03-04T16:38:49.468Z,3.263
2023-03-04T16:54:32.295Z,3.256
2023-03-04T17:10:15.055Z,3.252
2023-03-04T17:25:57.377Z,3.246
2023-03-04T17:41:39.819Z,3.243
2023-03-04T17:57:21.892Z,3.241
2023-03-04T18:13:04.593Z,3.238
2023-03-04T18:28:47.278Z,3.235
2023-03-04T18:44:30.230Z,3.232
2023-03-04T19:00:12.621Z,3.231
2023-03-04T19:15:55.691Z,3.228
2023-03-04T19:16:43.154Z,3.217
2023-03-04T19:32:25.506Z,3.225
2023-03-04T19:48:07.864Z,3.224
2023-03-04T20:03:50.223Z,3.224
2023-03-04T20:19:33.285Z,3.216
2023-03-04T20:35:16.199Z,3.216
2023-03-04T20:50:59.260Z,3.214
2023-03-04T21:06:42.023Z,3.213
2023-03-04T21:22:24.924Z,3.213
2023-03-04T21:38:07.823Z,3.212
2023-03-04T21:53:50.952Z,3.213
2023-03-04T22:25:16.946Z,3.212
2023-03-04T22:40:59.969Z,3.21
2023-03-04T22:56:42.920Z,3.212
2023-03-04T23:12:25.807Z,3.21
2023-03-04T23:28:08.844Z,3.21
2023-03-04T23:43:51.309Z,3.21
2023-03-04T23:59:34.300Z,3.209
